Terminal Aerodrome Forecast
Issued by NWS

Home | Current Version | Previous Version | Text Only | Print | Product List | Glossary On
Versions: 1 2 3 4 5 6 7 8 9 10 11 12 13 14 15 16 17 18 19 20 21 22 23 24 25 26 27 28
000
FTUS42 KTAE 031700 CCA
TAFVLD
TAF COR
KVLD 031757Z 0318/0418 15006KT P6SM SCT035 BKN045
     FM032100 16007KT P6SM BKN050
     FM040700 18003KT 4SM BR BKN008
     FM040900 19003KT 1/4SM FG OVC001
     FM041400 19004KT 3SM BR SCT003 BKN012
     FM041600 20008KT P6SM BKN025=

USA.gov is the U.S. government's official web portal to all federal, state and local government web resources and services.